createdAt,value
2022-11-04T00:01:43.845Z,99805.63
2022-11-04T00:04:11.315Z,99800.53
2022-11-04T00:06:38.363Z,99786.75
2022-11-04T00:09:07.156Z,99790.94
2022-11-04T00:11:52.218Z,99777.97
2022-11-04T00:14:19.235Z,99785.81
2022-11-04T00:17:04.419Z,99780.53
2022-11-04T00:19:52.132Z,99786.81
2022-11-04T00:22:37.666Z,99778.72
2022-11-04T00:25:23.924Z,99778.06
2022-11-04T00:28:09.536Z,99774.59
2022-11-04T00:30:36.322Z,99773.63
2022-11-04T00:33:21.520Z,99775.59
2022-11-04T00:35:49.814Z,99774.38
2022-11-04T00:38:17.418Z,99776.47
2022-11-04T00:40:44.229Z,99770.19
2022-11-04T00:43:10.959Z,99780.59
2022-11-04T00:45:37.429Z,99772.56
2022-11-04T00:48:04.131Z,99777.16
2022-11-04T00:50:30.588Z,99775.25
2022-11-04T00:53:00.969Z,99771.03
2022-11-04T00:55:27.762Z,99763.78
2022-11-04T00:57:54.717Z,99756.00
2022-11-04T01:00:21.387Z,99758.69
2022-11-04T01:02:48.227Z,99750.47
2022-11-04T01:05:14.787Z,99745.56
2022-11-04T01:07:43.800Z,99742.22
2022-11-04T01:10:10.927Z,99734.94
2022-11-04T01:12:37.400Z,99728.34
2022-11-04T01:15:04.108Z,99732.41
2022-11-04T01:17:30.598Z,99725.75
2022-11-04T01:19:57.149Z,99723.22
2022-11-04T01:22:23.581Z,99720.47
2022-11-04T01:24:50.026Z,99714.25
2022-11-04T01:27:16.450Z,99715.72
2022-11-04T01:29:42.956Z,99724.38
2022-11-04T01:32:09.390Z,99738.47
2022-11-04T01:34:40.653Z,99725.44
2022-11-04T01:37:09.896Z,99729.06
2022-11-04T01:39:36.372Z,99712.47
2022-11-04T01:45:14.432Z,99712.66
2022-11-04T01:47:44.886Z,99700.41
2022-11-04T01:50:15.107Z,99690.03
2022-11-04T01:52:47.261Z,99690.97
2022-11-04T01:55:17.869Z,99696.22
2022-11-04T01:57:47.448Z,99682.09
2022-11-04T02:00:14.576Z,99696.88
2022-11-04T02:02:48.572Z,99684.66
2022-11-04T02:05:15.057Z,99685.59
2022-11-04T02:07:41.638Z,99692.66
2022-11-04T02:10:08.403Z,99689.16
2022-11-04T02:12:49.989Z,99693.44
2022-11-04T02:15:35.997Z,99682.75
2022-11-04T02:18:24.459Z,99683.66
2022-11-04T02:21:11.785Z,99691.03
2022-11-04T02:24:06.279Z,99686.06
2022-11-04T02:27:10.460Z,99687.97
2022-11-04T02:29:52.109Z,99682.53
2022-11-04T02:32:38.111Z,99673.00
2022-11-04T02:35:23.463Z,99681.47
2022-11-04T02:38:14.604Z,99674.41
2022-11-04T02:41:05.430Z,99672.94
2022-11-04T02:43:34.982Z,99672.38
2022-11-04T02:46:16.731Z,99662.47
2022-11-04T02:49:09.168Z,99666.13
2022-11-04T02:52:18.136Z,99663.75
2022-11-04T02:54:49.019Z,99662.16
2022-11-04T02:57:19.858Z,99673.97
2022-11-04T02:59:49.259Z,99661.19
2022-11-04T03:02:19.346Z,99657.22
2022-11-04T03:04:49.911Z,99659.94
2022-11-04T03:07:19.902Z,99658.56
2022-11-04T03:09:50.347Z,99667.31
2022-11-04T03:12:18.333Z,99664.41
2022-11-04T03:14:49.134Z,99668.47
2022-11-04T03:17:23.398Z,99666.41
2022-11-04T03:19:54.740Z,99671.47
2022-11-04T03:22:22.752Z,99673.16
2022-11-04T03:24:49.667Z,99667.53
2022-11-04T03:27:27.521Z,99661.84
2022-11-04T03:30:02.193Z,99668.84
2022-11-04T03:32:53.952Z,99666.88
2022-11-04T03:35:20.598Z,99660.78
2022-11-04T03:37:48.284Z,99664.56
2022-11-04T03:40:15.877Z,99651.34
2022-11-04T03:42:46.482Z,99650.47
2022-11-04T03:45:13.693Z,99636.56
2022-11-04T03:47:41.048Z,99639.13
2022-11-04T03:50:13.493Z,99661.09
2022-11-04T03:52:40.220Z,99655.56
2022-11-04T03:55:07.572Z,99663.00
2022-11-04T03:57:56.982Z,99649.63
2022-11-04T04:00:24.087Z,99674.16
2022-11-04T04:03:06.471Z,99667.88
2022-11-04T04:05:35.942Z,99688.38
2022-11-04T04:08:41.292Z,99682.94
2022-11-04T04:11:21.296Z,99675.78
2022-11-04T04:13:56.882Z,99663.53
2022-11-04T04:16:29.495Z,99662.53
2022-11-04T04:19:06.145Z,99655.38
2022-11-04T04:21:38.090Z,99651.28
2022-11-04T04:24:25.082Z,99646.66
2022-11-04T04:27:11.103Z,99645.00
2022-11-04T04:29:38.310Z,99652.47
2022-11-04T04:32:05.520Z,99644.47
2022-11-04T04:34:33.098Z,99644.16
2022-11-04T04:37:05.916Z,99647.28
2022-11-04T04:40:26.650Z,99648.41
2022-11-04T04:43:12.024Z,99646.16
2022-11-04T04:45:41.230Z,99652.34
2022-11-04T04:48:09.905Z,99649.63
2022-11-04T04:50:38.901Z,99651.50
2022-11-04T04:53:05.533Z,99660.41
2022-11-04T04:55:35.167Z,99668.31
2022-11-04T04:58:03.850Z,99667.78
2022-11-04T05:00:30.356Z,99681.13
2022-11-04T05:02:56.813Z,99669.09
2022-11-04T05:05:23.685Z,99681.06
2022-11-04T05:07:50.204Z,99686.41
2022-11-04T05:10:17.697Z,99691.28
2022-11-04T05:13:02.727Z,99689.69
2022-11-04T05:15:30.015Z,99703.22
2022-11-04T05:17:58.408Z,99695.91
2022-11-04T05:20:25.144Z,99707.03
2022-11-04T05:22:51.766Z,99717.06
2022-11-04T05:25:18.232Z,99722.44
2022-11-04T05:27:44.675Z,99730.66
2022-11-04T05:30:11.513Z,99744.03
2022-11-04T05:32:37.959Z,99740.53
2022-11-04T05:35:04.704Z,99752.41
2022-11-04T05:37:31.162Z,99761.34
2022-11-04T05:39:57.639Z,99757.63
2022-11-04T05:42:24.078Z,99772.06
2022-11-04T05:44:50.539Z,99761.84
2022-11-04T05:47:17.122Z,99768.28
2022-11-04T05:49:43.650Z,99773.41
2022-11-04T05:52:10.127Z,99783.19
2022-11-04T05:54:38.292Z,99784.88
2022-11-04T05:57:04.805Z,99783.00
2022-11-04T05:59:31.262Z,99781.47
2022-11-04T06:01:57.815Z,99771.91
2022-11-04T06:04:24.422Z,99785.72
2022-11-04T06:06:51.961Z,99783.41
2022-11-04T06:09:18.451Z,99792.63
2022-11-04T06:11:45.410Z,99804.75
2022-11-04T06:14:17.463Z,99801.41
2022-11-04T06:16:45.095Z,99814.72
2022-11-04T06:19:15.941Z,99807.28
2022-11-04T06:21:42.706Z,99821.41
2022-11-04T06:24:09.171Z,99813.56
2022-11-04T06:26:35.644Z,99805.72
2022-11-04T06:29:02.113Z,99816.41
2022-11-04T06:31:28.572Z,99818.69
2022-11-04T06:33:55.004Z,99826.44
2022-11-04T06:36:21.643Z,99829.38
2022-11-04T06:38:48.173Z,99830.16
2022-11-04T06:41:16.356Z,99842.38
2022-11-04T06:43:42.844Z,99837.88
2022-11-04T06:46:24.207Z,99838.69
2022-11-04T06:48:50.633Z,99836.22
2022-11-04T06:51:17.096Z,99828.53
2022-11-04T06:53:43.528Z,99838.09
2022-11-04T06:56:10.334Z,99848.69
2022-11-04T06:58:36.773Z,99853.06
2022-11-04T07:01:07.461Z,99855.75
2022-11-04T07:03:39.177Z,99852.91
2022-11-04T07:06:07.305Z,99865.19
2022-11-04T07:08:33.766Z,99863.44
2022-11-04T07:11:00.264Z,99869.34
2022-11-04T07:13:26.745Z,99869.28
2022-11-04T07:15:53.250Z,99868.44
2022-11-04T07:20:47.599Z,99879.09
2022-11-04T07:23:14.071Z,99889.50
2022-11-04T07:25:40.708Z,99886.81
2022-11-04T07:28:07.423Z,99880.66
2022-11-04T07:30:34.133Z,99891.66
2022-11-04T07:33:00.587Z,99904.22
2022-11-04T07:35:27.056Z,99906.66
2022-11-04T07:37:55.082Z,99908.19
2022-11-04T07:40:21.551Z,99917.16
2022-11-04T07:42:48.039Z,99918.72
2022-11-04T07:45:14.579Z,99914.34
2022-11-04T07:47:41.032Z,99917.88
2022-11-04T07:50:10.947Z,99930.31
2022-11-04T07:52:37.627Z,99937.28
2022-11-04T07:55:04.435Z,99940.56
2022-11-04T07:57:30.917Z,99949.53
2022-11-04T07:59:57.404Z,99941.81
2022-11-04T08:02:26.764Z,99943.16
2022-11-04T08:04:56.657Z,99956.31
2022-11-04T08:07:23.161Z,99954.34
2022-11-04T08:09:49.644Z,99959.06
2022-11-04T08:12:16.109Z,99968.22
2022-11-04T08:14:42.596Z,99965.06
2022-11-04T08:17:10.057Z,99960.56
2022-11-04T08:19:36.565Z,99955.47
2022-11-04T08:22:03.030Z,99950.97
2022-11-04T08:24:29.521Z,99958.38
2022-11-04T08:26:55.970Z,99957.50
2022-11-04T08:29:23.780Z,99969.84
2022-11-04T08:31:50.204Z,99968.78
2022-11-04T08:34:18.399Z,99984.69
2022-11-04T08:36:45.428Z,99982.63
2022-11-04T08:39:13.057Z,99962.06
2022-11-04T08:41:42.012Z,99975.75
2022-11-04T08:44:09.233Z,99990.78
2022-11-04T08:46:38.400Z,99988.47
2022-11-04T08:49:10.018Z,99982.59
2022-11-04T08:51:41.058Z,99989.25
2022-11-04T08:54:07.720Z,99993.63
2022-11-04T08:56:36.549Z,99995.16
2022-11-04T08:59:04.301Z,99988.06
2022-11-04T09:01:35.769Z,99988.56
2022-11-04T09:04:03.704Z,99991.72
2022-11-04T09:06:34.303Z,100000.44
2022-11-04T09:09:04.457Z,99995.53
2022-11-04T09:11:33.442Z,99992.81
2022-11-04T09:14:01.245Z,100005.06
2022-11-04T09:16:29.421Z,100004.88
2022-11-04T09:18:57.548Z,100011.13
2022-11-04T09:21:25.148Z,100020.22
2022-11-04T09:23:53.664Z,100026.72
2022-11-04T09:26:25.695Z,100028.09
2022-11-04T09:28:56.602Z,100034.31
2022-11-04T09:31:24.119Z,100021.47
2022-11-04T09:33:50.960Z,100036.84
2022-11-04T09:36:17.655Z,100033.94
2022-11-04T09:38:45.127Z,100033.84
2022-11-04T09:41:36.598Z,100045.69
2022-11-04T09:44:21.977Z,100033.81
2022-11-04T09:46:49.531Z,100054.84
2022-11-04T09:49:16.833Z,100053.28
2022-11-04T09:51:55.427Z,100071.25
2022-11-04T09:54:24.896Z,100057.16
2022-11-04T09:56:53.202Z,100072.50
2022-11-04T09:59:32.553Z,100074.63
2022-11-04T10:02:07.357Z,100085.81
2022-11-04T10:04:46.744Z,100086.66
2022-11-04T10:07:21.189Z,100086.25
2022-11-04T10:10:01.619Z,100078.66
2022-11-04T10:12:49.496Z,100087.09
2022-11-04T10:15:30.842Z,100091.19
2022-11-04T10:18:14.996Z,100100.56
2022-11-04T10:20:47.585Z,100097.56
2022-11-04T10:23:27.122Z,100102.97
2022-11-04T10:26:17.227Z,100099.88
2022-11-04T10:28:52.449Z,100097.09
2022-11-04T10:31:19.325Z,100100.91
2022-11-04T10:33:50.116Z,100107.13
2022-11-04T10:36:17.263Z,100113.88
2022-11-04T10:38:51.387Z,100109.34
2022-11-04T10:41:24.158Z,100115.91
2022-11-04T10:43:57.767Z,100116.00
2022-11-04T10:46:42.541Z,100115.06
2022-11-04T10:49:34.340Z,100120.84
2022-11-04T10:52:00.833Z,100106.31
2022-11-04T10:54:27.701Z,100115.97
2022-11-04T10:56:55.577Z,100115.19
2022-11-04T10:59:29.025Z,100110.91
2022-11-04T11:01:57.960Z,100110.91
2022-11-04T11:04:29.157Z,100108.44
2022-11-04T11:06:57.725Z,100104.97
2022-11-04T11:09:29.587Z,100109.75
2022-11-04T11:12:29.437Z,100115.31
2022-11-04T11:14:52.877Z,100115.47
2022-11-04T11:17:35.176Z,100111.03
2022-11-04T11:20:08.404Z,100127.88
2022-11-04T11:22:34.824Z,100124.56
2022-11-04T11:25:30.964Z,100128.59
2022-11-04T11:28:03.109Z,100136.31
2022-11-04T11:30:45.882Z,100125.94
2022-11-04T11:33:20.222Z,100130.50
2022-11-04T11:35:52.141Z,100141.41
2022-11-04T11:38:22.964Z,100138.69
2022-11-04T11:41:18.818Z,100140.44
2022-11-04T11:43:43.329Z,100151.06
2022-11-04T11:46:10.813Z,100149.81
2022-11-04T11:48:42.828Z,100157.44
2022-11-04T11:51:38.745Z,100160.13
2022-11-04T11:54:26.899Z,100173.38
2022-11-04T12:02:59.428Z,100178.13
2022-11-04T12:11:37.187Z,100179.78
2022-11-04T12:14:16.005Z,100194.19
2022-11-04T12:16:49.199Z,100194.88
2022-11-04T12:19:37.927Z,100195.13
2022-11-04T12:22:35.519Z,100196.69
2022-11-04T12:25:24.647Z,100194.56
2022-11-04T12:28:17.282Z,100197.41
2022-11-04T12:31:00.055Z,100192.22
2022-11-04T12:33:45.273Z,100187.78
2022-11-04T12:36:32.941Z,100200.56
2022-11-04T12:39:21.529Z,100206.22
2022-11-04T12:42:29.687Z,100207.63
2022-11-04T12:45:18.309Z,100202.47
2022-11-04T12:47:46.081Z,100213.19
2022-11-04T12:50:50.068Z,100208.66
2022-11-04T12:53:33.271Z,100202.03
2022-11-04T12:56:12.812Z,100202.38
2022-11-04T12:58:53.534Z,100215.25
2022-11-04T13:02:01.121Z,100219.00
2022-11-04T13:04:36.635Z,100222.16
2022-11-04T13:07:08.632Z,100218.72
2022-11-04T13:09:43.408Z,100225.13
2022-11-04T13:12:13.171Z,100232.03
2022-11-04T13:14:47.648Z,100225.78
2022-11-04T13:22:45.053Z,100231.63
2022-11-04T13:25:20.102Z,100238.31
2022-11-04T13:27:48.219Z,100241.41
2022-11-04T13:30:30.029Z,100240.63
2022-11-04T13:32:58.669Z,100240.50
2022-11-04T13:35:33.586Z,100252.38
2022-11-04T13:38:06.004Z,100250.59
2022-11-04T13:40:45.965Z,100266.06
2022-11-04T13:43:40.319Z,100271.94
2022-11-04T13:46:17.589Z,100273.16
2022-11-04T13:49:01.110Z,100268.84
2022-11-04T13:51:45.617Z,100274.34
2022-11-04T13:54:27.495Z,100271.38
2022-11-04T13:57:04.953Z,100277.81
2022-11-04T13:59:32.029Z,100274.06
2022-11-04T14:02:11.074Z,100285.66
2022-11-04T14:04:44.903Z,100294.75
2022-11-04T14:07:14.433Z,100291.78
2022-11-04T14:09:46.818Z,100296.44
2022-11-04T14:12:17.169Z,100295.19
2022-11-04T14:14:46.005Z,100302.69
2022-11-04T14:17:44.583Z,100310.31
2022-11-04T14:20:22.559Z,100311.25
2022-11-04T14:22:49.737Z,100315.34
2022-11-04T14:25:47.912Z,100303.81
2022-11-04T14:28:14.309Z,100308.06
2022-11-04T14:30:51.367Z,100311.75
2022-11-04T14:33:27.101Z,100316.53
2022-11-04T14:35:55.541Z,100325.25
2022-11-04T14:38:29.654Z,100327.38
2022-11-04T14:41:23.240Z,100326.25
2022-11-04T14:43:50.181Z,100331.75
2022-11-04T14:46:22.724Z,100332.19
2022-11-04T14:48:52.448Z,100340.16
2022-11-04T14:51:24.901Z,100345.34
2022-11-04T14:53:52.774Z,100344.38
2022-11-04T14:56:24.580Z,100344.75
2022-11-04T14:59:05.575Z,100349.66
2022-11-04T15:01:38.589Z,100340.63
2022-11-04T15:04:13.484Z,100355.94
2022-11-04T15:06:54.031Z,100360.41
2022-11-04T15:09:27.614Z,100361.84
2022-11-04T15:12:27.982Z,100366.38
2022-11-04T15:14:55.544Z,100380.41
2022-11-04T15:17:24.367Z,100374.16
2022-11-04T15:19:52.207Z,100379.50
2022-11-04T15:22:19.437Z,100384.53
2022-11-04T15:24:46.320Z,100382.81
2022-11-04T15:27:18.493Z,100388.16
2022-11-04T15:29:55.109Z,100395.00
2022-11-04T15:32:21.667Z,100397.84
2022-11-04T15:34:48.226Z,100395.03
2022-11-04T15:37:15.647Z,100395.19
2022-11-04T15:39:46.904Z,100393.44
2022-11-04T15:42:43.164Z,100398.75
2022-11-04T15:45:21.955Z,100406.59
2022-11-04T15:47:48.788Z,100406.78
2022-11-04T15:50:22.317Z,100413.81
2022-11-04T15:52:53.106Z,100412.00
2022-11-04T15:55:22.955Z,100414.56
2022-11-04T15:57:50.061Z,100418.94
2022-11-04T16:00:16.487Z,100419.81
2022-11-04T16:02:55.132Z,100419.03
2022-11-04T16:05:24.638Z,100418.94
2022-11-04T16:07:53.479Z,100419.94
2022-11-04T16:10:32.623Z,100433.03
2022-11-04T16:13:14.392Z,100437.38
2022-11-04T16:15:49.587Z,100443.47
2022-11-04T16:18:33.971Z,100449.56
2022-11-04T16:21:06.350Z,100456.56
2022-11-04T16:23:39.659Z,100454.78
2022-11-04T16:26:06.879Z,100457.44
2022-11-04T16:28:37.855Z,100472.22
2022-11-04T16:31:25.082Z,100468.75
2022-11-04T16:33:51.839Z,100475.72
2022-11-04T16:36:23.717Z,100481.81
2022-11-04T16:38:55.460Z,100481.84
2022-11-04T16:41:26.292Z,100489.69
2022-11-04T16:43:53.690Z,100488.84
2022-11-04T16:46:20.489Z,100497.50
2022-11-04T16:48:46.924Z,100500.13
2022-11-04T16:51:18.235Z,100499.25
2022-11-04T16:53:48.727Z,100494.88
2022-11-04T16:56:16.408Z,100500.16
2022-11-04T16:58:42.939Z,100498.38
2022-11-04T17:01:13.264Z,100495.75
2022-11-04T17:03:40.384Z,100504.50
2022-11-04T17:06:07.053Z,100503.63
2022-11-04T17:08:33.573Z,100507.97
2022-11-04T17:11:00.090Z,100505.34
2022-11-04T17:13:27.622Z,100510.56
2022-11-04T17:15:55.407Z,100509.72
2022-11-04T17:18:22.088Z,100517.53
2022-11-04T17:20:51.290Z,100519.28
2022-11-04T17:23:17.883Z,100518.41
2022-11-04T17:25:45.220Z,100525.38
2022-11-04T17:28:11.739Z,100518.41
2022-11-04T17:30:39.015Z,100521.00
2022-11-04T17:33:07.465Z,100528.84
2022-11-04T17:35:35.200Z,100525.34
2022-11-04T17:38:01.651Z,100530.56
2022-11-04T17:40:28.367Z,100535.81
2022-11-04T17:43:14.053Z,100541.03
2022-11-04T17:45:43.940Z,100544.53
2022-11-04T17:48:11.284Z,100544.47
2022-11-04T17:50:39.373Z,100541.84
2022-11-04T17:53:05.809Z,100541.84
2022-11-04T17:55:37.291Z,100540.97
2022-11-04T17:58:03.754Z,100543.59
2022-11-04T18:00:30.260Z,100542.72
2022-11-04T18:02:56.910Z,100545.31
2022-11-04T18:05:23.427Z,100547.91
2022-11-04T18:07:49.863Z,100549.66
2022-11-04T18:10:16.513Z,100551.38
2022-11-04T18:12:43.352Z,100549.69
2022-11-04T18:15:31.243Z,100557.53
2022-11-04T18:18:04.334Z,100559.22
2022-11-04T18:20:38.171Z,100555.78
2022-11-04T18:23:05.513Z,100560.22
2022-11-04T18:25:32.564Z,100560.97
2022-11-04T18:27:59.007Z,100550.53
2022-11-04T18:30:26.618Z,100561.84
2022-11-04T18:32:54.088Z,100560.06
2022-11-04T18:35:20.535Z,100562.66
2022-11-04T18:37:47.670Z,100567.00
2022-11-04T18:40:14.748Z,100569.59
2022-11-04T18:42:41.572Z,100572.31
2022-11-04T18:45:08.903Z,100585.16
2022-11-04T18:47:37.745Z,100584.25
2022-11-04T18:50:04.565Z,100582.63
2022-11-04T18:52:32.095Z,100585.28
2022-11-04T18:54:59.217Z,100591.22
2022-11-04T18:57:25.673Z,100588.69
2022-11-04T18:59:52.221Z,100590.31
2022-11-04T19:02:23.640Z,100598.19
2022-11-04T19:04:50.957Z,100599.97
2022-11-04T19:07:17.737Z,100613.81
2022-11-04T19:09:47.152Z,100618.19
2022-11-04T19:12:32.832Z,100618.19
2022-11-04T19:14:59.345Z,100615.59
2022-11-04T19:17:26.364Z,100618.03
2022-11-04T19:19:54.105Z,100621.69
2022-11-04T19:22:20.590Z,100616.56
2022-11-04T19:24:47.098Z,100622.59
2022-11-04T19:27:13.752Z,100617.25
2022-11-04T19:29:40.213Z,100629.56
2022-11-04T19:32:13.882Z,100632.13
2022-11-04T19:34:43.241Z,100636.31
2022-11-04T19:37:10.827Z,100633.66
2022-11-04T19:39:39.782Z,100631.00
2022-11-04T19:42:31.254Z,100640.50
2022-11-04T19:44:57.789Z,100633.69
2022-11-04T19:47:26.536Z,100642.25
2022-11-04T19:49:53.263Z,100651.81
2022-11-04T19:52:20.495Z,100652.59
2022-11-04T19:54:47.167Z,100655.16
2022-11-04T19:57:13.822Z,100663.88
2022-11-04T19:59:43.208Z,100654.38
2022-11-04T20:02:13.657Z,100645.56
2022-11-04T20:04:42.102Z,100664.66
2022-11-04T20:07:10.265Z,100667.41
2022-11-04T20:09:37.593Z,100663.72
2022-11-04T20:12:25.317Z,100669.75
2022-11-04T20:14:55.361Z,100674.81
2022-11-04T20:17:22.750Z,100684.31
2022-11-04T20:19:49.217Z,100686.13
2022-11-04T20:22:16.964Z,100684.63
2022-11-04T20:24:43.861Z,100690.59
2022-11-04T20:27:15.415Z,100695.63
2022-11-04T20:29:43.000Z,100683.38
2022-11-04T20:32:09.885Z,100693.03
2022-11-04T20:34:37.833Z,100684.91
2022-11-04T20:37:04.451Z,100689.44
2022-11-04T20:39:31.114Z,100693.63
2022-11-04T20:41:57.714Z,100693.63
2022-11-04T20:44:24.772Z,100699.91
2022-11-04T20:47:02.348Z,100695.69
2022-11-04T20:49:28.862Z,100698.75
2022-11-04T20:51:56.293Z,100698.50
2022-11-04T20:54:22.943Z,100702.25
2022-11-04T20:56:49.526Z,100711.03
2022-11-04T20:59:16.817Z,100704.84
2022-11-04T21:01:46.183Z,100714.50
2022-11-04T21:04:15.528Z,100714.63
2022-11-04T21:06:43.233Z,100709.25
2022-11-04T21:09:12.264Z,100717.59
2022-11-04T21:11:39.751Z,100723.84
2022-11-04T21:14:12.797Z,100721.88
2022-11-04T21:16:39.898Z,100727.47
2022-11-04T21:19:07.829Z,100727.41
2022-11-04T21:21:35.213Z,100731.41
2022-11-04T21:24:06.944Z,100729.66
2022-11-04T21:26:35.355Z,100745.03
2022-11-04T21:29:04.703Z,100741.06
2022-11-04T21:31:33.211Z,100753.19
2022-11-04T21:34:00.195Z,100750.59
2022-11-04T21:36:27.189Z,100765.91
2022-11-04T21:38:53.649Z,100758.84
2022-11-04T21:41:23.180Z,100764.97
2022-11-04T21:43:54.737Z,100771.38
2022-11-04T21:46:21.364Z,100774.66
2022-11-04T21:48:48.241Z,100772.09
2022-11-04T21:51:17.784Z,100776.25
2022-11-04T21:53:44.713Z,100776.25
2022-11-04T21:56:14.918Z,100779.13
2022-11-04T21:58:43.781Z,100786.00
2022-11-04T22:01:12.642Z,100788.78
2022-11-04T22:03:39.458Z,100787.56
2022-11-04T22:06:08.492Z,100788.28
2022-11-04T22:08:36.158Z,100791.16
2022-11-04T22:11:17.680Z,100789.53
2022-11-04T22:13:44.542Z,100788.09
2022-11-04T22:16:16.971Z,100793.22
2022-11-04T22:18:43.542Z,100786.38
2022-11-04T22:21:13.491Z,100789.78
2022-11-04T22:23:40.315Z,100804.59
2022-11-04T22:26:11.858Z,100803.66
2022-11-04T22:28:38.441Z,100805.34
2022-11-04T22:31:07.648Z,100794.13
2022-11-04T22:33:34.161Z,100801.13
2022-11-04T22:36:00.606Z,100799.22
2022-11-04T22:38:27.110Z,100798.19
2022-11-04T22:40:55.475Z,100806.28
2022-11-04T22:43:22.029Z,100809.72
2022-11-04T22:45:48.469Z,100808.97
2022-11-04T22:48:14.972Z,100803.63
2022-11-04T22:50:41.399Z,100801.84
2022-11-04T22:53:08.175Z,100801.91
2022-11-04T22:55:36.308Z,100811.13
2022-11-04T22:58:03.540Z,100813.88
2022-11-04T23:00:31.109Z,100814.91
2022-11-04T23:02:58.007Z,100807.88
2022-11-04T23:05:27.326Z,100806.91
2022-11-04T23:07:54.392Z,100799.09
2022-11-04T23:10:39.418Z,100811.91
2022-11-04T23:13:24.856Z,100811.94
2022-11-04T23:16:10.070Z,100809.50
2022-11-04T23:18:42.502Z,100807.97
2022-11-04T23:21:37.066Z,100819.13
2022-11-04T23:24:22.168Z,100821.09
2022-11-04T23:26:48.809Z,100823.59
2022-11-04T23:29:34.939Z,100825.81
2022-11-04T23:32:01.563Z,100826.72
2022-11-04T23:34:46.937Z,100825.59
2022-11-04T23:37:14.896Z,100833.22
2022-11-04T23:39:47.676Z,100832.56
2022-11-04T23:42:22.942Z,100820.50
2022-11-04T23:45:14.940Z,100826.72
2022-11-04T23:48:04.237Z,100830.72
2022-11-04T23:50:55.557Z,100829.41
2022-11-04T23:53:40.711Z,100834.69
2022-11-04T23:56:28.779Z,100830.94
2022-11-04T23:59:14.009Z,100835.13
